Sierra Nevada Aquatic Research Lab (SNARL) Reserve, Santa Monica Mtns, California Weather observations

Data are for 10 minute period ending at time listed.
 Day   Time   Solar   Ave.   Ave.  Ave.  Vector  Max.   Baro.   Total    
  of    of     Rad.   Air    Rel.  Wind   Wind   Wind  Press.  Precip.   
Year   Day            Temp.  Hum.  Speed  Dir.   Gust                    
2014   (PST)  Kw/m2    F      %     mph   deg.    mph    mb.     in.     
-------------------------------------------------------------------------
 326   15:40   0.03   48.3    43   13.0   304    27.5   782.0    0.00 
 326   15:50   0.02   47.4    44   13.5   319    23.9   782.0    0.00 
 326   16:00   0.01   46.5    43   11.2   307    23.7   782.0    0.00 
 326   16:10   0.02   46.1    43    9.5   293    20.0   782.1    0.00 
 326   16:20   0.03   45.6    44   12.4   316    22.5   782.1    0.00 
 326   16:30   0.02   45.9    38   13.9   298    30.8   782.0    0.00 
 326   16:40   0.01   45.5    41   11.7   311    25.6   782.3    0.00 
 326   16:50   0.00   44.6    45   13.0   315    25.2   782.6    0.00 
 326   17:00   0.00   44.3    41   14.3   316    26.2   782.8    0.00 
 326   17:10   0.00   44.3    39   13.5   295    23.9   783.1    0.00 
 326   17:20   0.00   43.8    39   14.0   281    22.1   783.1    0.00 
 326   17:30   0.00   44.3    34   17.5   266    33.5   783.0    0.00 
 326   17:40   0.00   44.7    31   17.0   272    28.1   783.1    0.00 
 326   17:50   0.00   44.8    30   20.4   265    39.4   783.0    0.00 
 326   18:00   0.00   45.5    28   24.9   257    40.4   782.8    0.00 
 326   18:10   0.00   45.4    29   24.4   264    41.5   782.7    0.00 
 326   18:20   0.00   45.0    30   21.8   255    34.7   782.6    0.00 
 326   18:30   0.00   44.8    29   23.4   258    34.2   782.4    0.00 
 326   18:40   0.00   45.3    26   22.1   254    33.3   782.4    0.00 
 326   18:50   0.00   45.9    24   21.8   254    40.3   782.5    0.00 
 326   19:00   0.00   46.0    24   22.1   263    37.2   782.9    0.00 
 326   19:10   0.00   45.6    25   21.4   268    32.2   783.1    0.00 
 326   19:20   0.00   45.2    26   19.1   266    32.8   783.2    0.00 
 326   19:30   0.00   45.0    26   19.4   260    29.5   783.3    0.00 
 326   19:40   0.00   44.9    25   18.5   256    36.0   783.4    0.00 
 326   19:50   0.00   44.8    23   17.4   256    28.5   783.7    0.00 
 326   20:00   0.00   44.1    24   12.2   271    23.8   783.9    0.00 
 326   20:10   0.00   43.8    24   11.8   277    20.3   784.1    0.00 
 326   20:20   0.00   41.7    32    7.3   284    11.6   784.2    0.00 
 326   20:30   0.00   39.6    36    4.8   291     9.5   784.3    0.00 
 326   20:40   0.00   38.3    38    5.5   309    12.9   784.4    0.00 
 326   20:50   0.00   38.5    37    6.2   329    16.2   784.6    0.00 
 326   21:00   0.00   37.7    40    4.8   327    13.3   784.9    0.00 
 326   21:10   0.00   36.2    42    2.7   266     6.4   785.0    0.00 
 326   21:20   0.00   35.7    45    4.3   261     7.7   785.2    0.00 
 326   21:30   0.00   35.4    45    8.4   240    13.4   785.4    0.00 
 326   21:40   0.00   36.6    44    8.6   240    15.4   785.5    0.00 
 326   21:50   0.00   36.8    43    8.5   252    14.0   785.7    0.00 
 326   22:00   0.00   37.1    42    9.0   250    14.2   785.8    0.00 
 326   22:10   0.00   36.5    42    6.3   272     9.3   785.8    0.00 
 326   22:20   0.00   36.8    42    7.0   278    15.4   786.0    0.00 
 326   22:30   0.00   35.5    44    6.5   276    10.4   786.1    0.00 
 326   22:40   0.00   34.8    46    6.0   286     9.3   786.2    0.00 
 326   22:50   0.00   33.5    49    5.7   292    10.1   786.2    0.00 
 326   23:00   0.00   32.9    50    6.9   279    10.2   786.1    0.00 
 326   23:10   0.00   32.9    50    6.6   304     9.9   786.4    0.00 
 326   23:20   0.00   29.5    55    6.4   300     9.3   786.4    0.00 
 326   23:30   0.00   30.8    56    5.8   280     9.3   786.4    0.00 
 326   23:40   0.00   30.7    57    5.2   272     8.3   786.9    0.00 
 326   23:50   0.00   29.4    61    7.5   246    12.0   787.1    0.00 
 327    0:00   0.00   29.6    61    9.0   241    14.3   787.0    0.00 
 327    0:10   0.00   30.1    61    6.0   260     8.8   787.1    0.00 
 327    0:20   0.00   28.8    63    5.8   257     8.0   787.2    0.00 
 327    0:30   0.00   27.7    65    5.9   248     8.6   787.3    0.00 
 327    0:40   0.00   27.2    66    3.9   257     6.1   787.2    0.00 
 327    0:50   0.00   24.7    68    6.5   246     9.0   787.2    0.00 
 327    1:00   0.00   26.1    69    5.8   269     8.2   787.3    0.00 
 327    1:10   0.00   26.8    65    6.5   254     9.1   787.3    0.00 
 327    1:20   0.00   26.7    64    5.9   273    11.1   787.4    0.00 
 327    1:30   0.00   25.8    64    4.7   277     7.1   787.6    0.00 
 327    1:40   0.00   25.3    66    6.8   277     9.0   787.7    0.00 
 327    1:50   0.00   26.2    64    8.3   267    11.4   788.0    0.00 
 327    2:00   0.00   26.7    64    8.5   267    11.0   788.1    0.00 
 327    2:10   0.00   27.4    61    6.8   273    10.2   788.1    0.00 
 327    2:20   0.00   27.2    60   10.4   260    15.6   788.1    0.00 
 327    2:30   0.00   27.6    58    9.0   263    12.3   788.0    0.00 
 327    2:40   0.00   27.9    56    9.5   272    14.6   787.9    0.00 
 327    2:50   0.00   28.0    54    9.7   272    15.6   787.9    0.00 
 327    3:00   0.00   28.0    54   10.3   278    15.5   788.0    0.00 
 327    3:10   0.00   27.9    53    6.6   297    11.2   788.0    0.00 
 327    3:20   0.00   27.7    41    8.7   249    15.1   787.8    0.00 
 327    3:30   0.00   28.7    40    8.4   286    12.8   788.0    0.00 
 327    3:40   0.00   28.4    39    8.4   277    12.5   788.1    0.00 
 327    3:50   0.00   28.8    31    9.2   253    12.3   788.2    0.00 
 327    4:00   0.00   28.6    31    6.6   286    11.0   788.3    0.00 
 327    4:10   0.00   28.2    30    7.8   269    14.6   788.4    0.00 
 327    4:20   0.00   28.8    24    8.9   251    13.2   788.5    0.00 
 327    4:30   0.00   29.7    20    7.6   256    11.0   788.6    0.00 
 327    4:40   0.00   30.0    22    9.6   278    15.3   788.8    0.00 
 327    4:50   0.00   30.0    20    9.4   250    13.7   788.8    0.00 
 327    5:00   0.00   29.4    19    6.9   257    10.6   788.7    0.00 
 327    5:10   0.00   28.9    19    6.5   271    10.7   788.9    0.00 
 327    5:20   0.00   27.0    20    5.1   271     9.7   789.0    0.00 
 327    5:30   0.00   27.2    19    6.3   275     8.8   789.1    0.00 
 327    5:40   0.00   27.5    19    5.2   268    10.4   789.5    0.00 
 327    5:50   0.00   23.7    30    2.8   315     7.8   789.4    0.00 
 327    6:00   0.00   22.3    32    3.8   264     7.5   789.4    0.00 
 327    6:10   0.00   21.1    28    5.7   242    11.0   789.2    0.00 
 327    6:20   0.00   21.8    34    6.1   315    11.5   789.3    0.00 
 327    6:30   0.00   19.4    39    5.1   341     9.0   789.4    0.00 
 327    6:40   0.00   18.5    41    4.1     7     6.7   789.4    0.00 
 327    6:50   0.00   17.8    43    1.3   233     3.3   789.6    0.00 
 327    7:00   0.00   16.7    44    1.9   296     4.5   789.5    0.00 
 327    7:10   0.01   15.9    44    0.2    73     1.2   789.5    0.00 
 327    7:20   0.01   13.1    44    1.0   139     2.3   789.6    0.00 
 327    7:30   0.02   12.1    46    1.0   204     2.6   789.7    0.00 
 327    7:40   0.12   14.5    44    2.0   220     4.2   789.8    0.00 
 327    7:50   0.15   19.1    40    2.9   227     6.4   790.0    0.00 
 327    8:00   0.18   23.9    33    2.9   227     5.4   789.9    0.00 
 327    8:10   0.21   29.7    27    2.7    79     8.6   790.2    0.00 
 327    8:20   0.24   31.0    33    1.8    64     5.3   790.4    0.00 
 327    8:30   0.27   33.4    34    1.2   168     2.6   790.6    0.00 
 327    8:40   0.30   35.2    24    2.5   296     4.3   790.5    0.00 
 327    8:50   0.32   38.1    18    1.6   347     4.0   790.4    0.00 
 327    9:00   0.35   40.2    20    1.6     7     4.1   790.3    0.00 
 327    9:10   0.38   41.7    18    1.3    18     4.1   790.3    0.00 
 327    9:20   0.40   41.9    16    2.1   354     5.6   790.0    0.00 
 327    9:30   0.42   42.1    14    3.2   357     5.8   789.9    0.00 
 327    9:40   0.44   42.7    19    2.9    30     7.3   790.2    0.00 
 327    9:50   0.48   43.9    12    4.5   294     8.5   790.6    0.00 
 327   10:00   0.47   44.3     8    5.0   281     9.6   790.4    0.00 
 327   10:10   0.50   45.1     7    3.4   276     9.5   790.1    0.00 
 327   10:20   0.52   46.3     7    4.1   253    10.4   789.8    0.00 
 327   10:30   0.53   46.0     7    5.2   292    13.4   789.6    0.00 
 327   10:40   0.54   45.9     7    5.9   308    11.1   789.6    0.00 
 327   10:50   0.56   46.5     7    5.5   290    10.2   789.6    0.00 
 327   11:00   0.57   46.8     7    3.5   276     7.5   789.4    0.00 
 327   11:10   0.57   47.6     7    4.6   289     8.5   789.3    0.00 
 327   11:20   0.57   47.5     7    5.9   273    10.8   789.2    0.00 
 327   11:30   0.58   48.0     6    6.8   283    12.6   789.1    0.00 
 327   11:40   0.60   48.1     6    6.3   319    12.9   788.9    0.00 
 327   11:50   0.65   48.9     6    6.8   278    13.0   788.8    0.00 
 327   12:00   0.43   48.7     6    6.0   264    13.7   788.7    0.00 
 327   12:10   0.53   48.8     6    5.0   259    11.4   788.4    0.00 
 327   12:20   0.50   49.6     6    4.4   236    12.6   788.4    0.00 
 327   12:30   0.57   49.6     6    6.9   256    13.7   788.3    0.00 
 327   12:40   0.63   50.3     5    7.2   252    12.0   788.1    0.00 
 327   12:50   0.54   50.4     5    3.3   351     7.3   787.9    0.00 
 327   13:00   0.52   51.2     6    3.2   190     9.1   787.6    0.00 
 327   13:10   0.54   51.5     5    5.7   341    10.6   787.6    0.00 
 327   13:20   0.47   51.3     5    2.9   353     9.1   787.6    0.00 
 327   13:30   0.50   51.2     6    3.8    48     8.5   787.5    0.00 
 327   13:40   0.47   51.4     6    5.8    71    12.9   787.5    0.00 
 327   13:50   0.26   50.6     8    9.9   357    16.8   787.5    0.00 
 327   14:00   0.21   49.3     8    8.8   332    14.5   787.4    0.00 
 327   14:10   0.34   49.6     8    9.0   343    15.6   787.2    0.00 
 327   14:20   0.24   49.4     9    9.6   342    15.4   787.2    0.00 
 327   14:30   0.18   49.0     9    7.7   339    15.3   787.3    0.00 
 327   14:40   0.15   48.5    10    8.3   332    14.5   787.3    0.00 
 327   14:50   0.11   48.3    10    7.3   331    12.3   787.3    0.00 
 327   15:00   0.10   47.8    10    6.3   324    10.5   787.2    0.00 
 327   15:10   0.11   47.8    10    3.8   323     8.9   787.0    0.00 
 327   15:20   0.11   48.5    10    3.5   326     7.5   787.1    0.00 
 327   15:30   0.05   47.5    12    7.9   339    14.0   787.3    0.00 

Return to SNARL Reserve graphs page.


Western Regional Climate Center,wrcc@dri.edu